createdAt,value
2018-09-06T00:02:03.266Z,42.40
2018-09-06T00:04:31.721Z,44.43
2018-09-06T00:07:00.228Z,42.33
2018-09-06T00:09:28.716Z,42.90
2018-09-06T00:11:57.179Z,43.27
2018-09-06T00:14:25.767Z,41.87
2018-09-06T00:16:54.191Z,43.97
2018-09-06T00:19:22.885Z,44.37
2018-09-06T00:21:51.438Z,43.70
2018-09-06T00:24:19.858Z,43.83
2018-09-06T00:26:49.531Z,42.47
2018-09-06T00:29:17.985Z,43.57
2018-09-06T00:31:46.558Z,41.73
2018-09-06T00:34:15.047Z,43.37
2018-09-06T00:36:44.560Z,43.60
2018-09-06T00:39:13.020Z,44.10
2018-09-06T00:41:41.476Z,44.20
2018-09-06T00:44:09.961Z,44.80
2018-09-06T00:46:39.132Z,46.00
2018-09-06T00:49:07.546Z,44.10
2018-09-06T00:51:36.036Z,43.03
2018-09-06T00:54:05.621Z,42.30
2018-09-06T00:56:34.156Z,44.27
2018-09-06T00:59:02.629Z,40.53
2018-09-06T01:01:31.111Z,43.00
2018-09-06T01:03:59.663Z,40.50
2018-09-06T01:06:28.277Z,40.07
2018-09-06T01:08:56.830Z,40.33
2018-09-06T01:11:25.302Z,39.40
2018-09-06T01:13:53.814Z,37.53
2018-09-06T01:16:22.372Z,39.47
2018-09-06T01:18:50.854Z,38.77
2018-09-06T01:21:19.324Z,42.23
2018-09-06T01:23:47.750Z,41.13
2018-09-06T01:26:16.213Z,40.10
2018-09-06T01:28:44.771Z,40.73
2018-09-06T01:31:13.215Z,40.53
2018-09-06T01:33:41.662Z,41.10
2018-09-06T01:36:15.730Z,40.57
2018-09-06T01:38:44.170Z,38.40
2018-09-06T01:41:13.018Z,39.67
2018-09-06T01:43:41.529Z,38.90
2018-09-06T01:46:09.949Z,39.43
2018-09-06T01:48:38.359Z,40.40
2018-09-06T01:51:06.853Z,39.90
2018-09-06T01:53:35.845Z,39.20
2018-09-06T01:56:04.306Z,38.03
2018-09-06T01:58:32.718Z,38.97
2018-09-06T02:01:01.316Z,39.13
2018-09-06T02:03:29.754Z,38.53
2018-09-06T02:05:58.177Z,38.90
2018-09-06T02:08:26.696Z,37.17
2018-09-06T02:10:55.176Z,35.40
2018-09-06T02:13:23.611Z,34.53
2018-09-06T02:15:52.070Z,34.63
2018-09-06T02:18:20.511Z,34.50
2018-09-06T02:20:48.955Z,34.07
2018-09-06T02:23:17.458Z,31.43
2018-09-06T02:25:45.914Z,31.93
2018-09-06T02:28:14.537Z,30.90
2018-09-06T02:30:42.985Z,31.33
2018-09-06T02:33:11.599Z,31.23
2018-09-06T02:35:40.284Z,30.87
2018-09-06T02:38:08.860Z,32.03
2018-09-06T02:40:38.306Z,31.27
2018-09-06T02:43:08.679Z,31.30
2018-09-06T02:45:37.098Z,31.53
2018-09-06T02:48:05.613Z,30.37
2018-09-06T02:50:39.599Z,29.97
2018-09-06T02:53:08.109Z,27.80
2018-09-06T02:55:36.644Z,28.37
2018-09-06T02:58:05.510Z,28.33
2018-09-06T03:00:35.298Z,28.63
2018-09-06T03:03:03.903Z,28.77
2018-09-06T03:05:32.404Z,30.10
2018-09-06T03:08:01.427Z,28.77
2018-09-06T03:10:34.582Z,28.90
2018-09-06T03:13:03.014Z,27.97
2018-09-06T03:15:31.556Z,26.67
2018-09-06T03:18:00.220Z,26.30
2018-09-06T03:20:28.689Z,25.63
2018-09-06T03:22:57.180Z,25.33
2018-09-06T03:25:25.619Z,24.63
2018-09-06T03:27:54.140Z,25.43
2018-09-06T03:30:22.632Z,25.70
2018-09-06T03:32:51.293Z,24.97
2018-09-06T03:35:19.855Z,25.53
2018-09-06T03:37:48.375Z,25.23
2018-09-06T03:40:16.886Z,25.00
2018-09-06T03:42:45.614Z,24.30
2018-09-06T03:45:14.206Z,24.50
2018-09-06T03:47:42.678Z,23.33
2018-09-06T03:50:11.251Z,24.13
2018-09-06T03:52:39.804Z,23.63
2018-09-06T03:55:08.392Z,24.47
2018-09-06T03:57:36.876Z,23.10
2018-09-06T04:00:05.362Z,23.90
2018-09-06T04:02:33.846Z,22.67
2018-09-06T04:05:02.272Z,24.37
2018-09-06T04:07:30.832Z,21.87
2018-09-06T04:09:59.295Z,23.10
2018-09-06T04:12:27.893Z,22.97
2018-09-06T04:14:56.315Z,22.73
2018-09-06T04:17:24.751Z,23.07
2018-09-06T04:19:53.492Z,22.67
2018-09-06T04:22:21.923Z,22.17
2018-09-06T04:24:50.366Z,20.43
2018-09-06T04:27:18.894Z,22.57
2018-09-06T04:29:47.371Z,23.57
2018-09-06T04:32:15.898Z,23.27
2018-09-06T04:34:44.356Z,23.13
2018-09-06T04:37:12.824Z,21.10
2018-09-06T04:39:41.268Z,22.70
2018-09-06T04:42:09.907Z,22.90
2018-09-06T04:44:38.541Z,22.67
2018-09-06T04:47:07.021Z,23.00
2018-09-06T04:49:35.495Z,23.10
2018-09-06T04:52:04.286Z,23.23
2018-09-06T04:54:33.041Z,22.60
2018-09-06T04:57:01.554Z,23.80
2018-09-06T04:59:29.999Z,23.03
2018-09-06T05:01:58.554Z,21.63
2018-09-06T05:04:27.066Z,21.07
2018-09-06T05:06:55.611Z,22.00
2018-09-06T05:09:24.188Z,22.47
2018-09-06T05:11:52.635Z,20.87
2018-09-06T05:14:21.093Z,23.27
2018-09-06T05:16:49.604Z,22.23
2018-09-06T05:19:18.047Z,20.70
2018-09-06T05:21:46.501Z,22.30
2018-09-06T05:24:14.920Z,21.37
2018-09-06T05:26:43.359Z,22.50
2018-09-06T05:29:11.800Z,22.57
2018-09-06T05:31:40.212Z,21.47
2018-09-06T05:34:08.642Z,20.20
2018-09-06T05:36:37.331Z,21.03
2018-09-06T05:39:08.786Z,21.50
2018-09-06T05:41:37.418Z,20.37
2018-09-06T05:44:06.110Z,21.83
2018-09-06T05:46:34.568Z,20.43
2018-09-06T05:49:03.033Z,20.60
2018-09-06T05:51:31.483Z,21.53
2018-09-06T05:53:59.992Z,20.83
2018-09-06T05:56:28.475Z,19.77
2018-09-06T05:58:56.932Z,20.20
2018-09-06T06:01:25.378Z,20.47
2018-09-06T06:03:53.892Z,19.93
2018-09-06T06:06:22.446Z,22.00
2018-09-06T06:08:51.274Z,21.47
2018-09-06T06:11:20.680Z,21.03
2018-09-06T06:13:49.170Z,20.57
2018-09-06T06:16:17.722Z,22.70
2018-09-06T06:18:46.323Z,22.37
2018-09-06T06:21:14.990Z,25.23
2018-09-06T06:23:43.413Z,22.70
2018-09-06T06:26:11.936Z,25.90
2018-09-06T06:28:40.541Z,25.83
2018-09-06T06:31:08.975Z,24.83
2018-09-06T06:33:37.521Z,25.13
2018-09-06T06:36:06.219Z,26.50
2018-09-06T06:38:35.691Z,24.63
2018-09-06T06:41:04.120Z,25.90
2018-09-06T06:43:32.715Z,26.13
2018-09-06T06:46:01.161Z,27.20
2018-09-06T06:48:29.628Z,27.40
2018-09-06T06:50:58.076Z,26.00
2018-09-06T06:53:26.572Z,26.87
2018-09-06T06:55:55.076Z,25.97
2018-09-06T06:58:23.504Z,25.13
2018-09-06T07:00:51.971Z,24.47
2018-09-06T07:03:20.613Z,26.83
2018-09-06T07:05:49.062Z,22.97
2018-09-06T07:08:17.529Z,24.13
2018-09-06T07:10:46.008Z,25.70
2018-09-06T07:13:14.534Z,25.23
2018-09-06T07:15:43.079Z,23.57
2018-09-06T07:18:11.592Z,24.10
2018-09-06T07:20:40.248Z,24.43
2018-09-06T07:23:08.728Z,23.47
2018-09-06T07:25:37.165Z,23.00
2018-09-06T07:28:05.759Z,23.10
2018-09-06T07:30:34.448Z,23.03
2018-09-06T07:33:03.024Z,24.33
2018-09-06T07:35:31.507Z,22.87
2018-09-06T07:38:00.001Z,22.10
2018-09-06T07:40:28.435Z,22.33
2018-09-06T07:42:56.944Z,20.83
2018-09-06T07:45:25.406Z,19.77
2018-09-06T07:47:53.842Z,19.17
2018-09-06T07:50:22.276Z,18.67
2018-09-06T07:52:50.684Z,20.10
2018-09-06T07:55:19.140Z,17.13
2018-09-06T07:57:47.836Z,17.90
2018-09-06T08:00:16.338Z,17.37
2018-09-06T08:02:44.918Z,16.17
2018-09-06T08:05:13.496Z,16.07
2018-09-06T08:07:41.972Z,16.27
2018-09-06T08:10:10.416Z,16.17
2018-09-06T08:12:38.925Z,16.90
2018-09-06T08:15:07.519Z,15.57
2018-09-06T08:17:36.109Z,15.77
2018-09-06T08:20:04.659Z,16.03
2018-09-06T08:22:33.526Z,15.90
2018-09-06T08:25:02.082Z,15.83
2018-09-06T08:27:31.101Z,15.40
2018-09-06T08:29:59.501Z,14.90
2018-09-06T08:32:28.035Z,14.87
2018-09-06T08:34:56.575Z,14.73
2018-09-06T08:37:25.588Z,15.20
2018-09-06T08:39:54.090Z,14.07
2018-09-06T08:42:22.576Z,15.77
2018-09-06T08:44:51.006Z,14.43
2018-09-06T08:47:19.548Z,14.90
2018-09-06T08:49:48.306Z,13.17
2018-09-06T08:52:17.179Z,15.70
2018-09-06T08:54:45.660Z,15.90
2018-09-06T08:57:14.131Z,15.00
2018-09-06T08:59:42.683Z,14.93
2018-09-06T09:02:12.233Z,15.23
2018-09-06T09:04:40.980Z,14.33
2018-09-06T09:07:09.557Z,15.17
2018-09-06T09:09:38.032Z,15.57
2018-09-06T09:12:06.497Z,14.90
2018-09-06T09:14:35.411Z,15.77
2018-09-06T09:17:04.023Z,14.63
2018-09-06T09:19:32.729Z,14.27
2018-09-06T09:22:01.256Z,13.00
2018-09-06T09:24:29.912Z,13.57
2018-09-06T09:26:58.395Z,15.33
2018-09-06T09:29:27.032Z,13.13
2018-09-06T09:31:55.760Z,13.50
2018-09-06T09:34:24.188Z,14.00
2018-09-06T09:36:52.668Z,13.83
2018-09-06T09:39:21.102Z,12.40
2018-09-06T09:41:49.570Z,12.13
2018-09-06T09:44:18.099Z,13.73
2018-09-06T09:49:14.319Z,12.77
2018-09-06T09:51:42.840Z,12.80
2018-09-06T09:54:11.295Z,12.17
2018-09-06T09:56:39.707Z,13.00
2018-09-06T09:59:08.207Z,12.77
2018-09-06T10:01:42.601Z,17.53
2018-09-06T10:04:16.616Z,14.00
2018-09-06T10:06:50.303Z,13.83
2018-09-06T10:09:25.495Z,13.53
2018-09-06T10:11:53.919Z,12.63
2018-09-06T10:14:22.675Z,12.67
2018-09-06T10:16:51.329Z,12.93
2018-09-06T10:19:19.807Z,13.50
2018-09-06T10:21:48.260Z,13.57
2018-09-06T10:24:16.694Z,12.90
2018-09-06T10:26:45.129Z,13.13
2018-09-06T10:29:13.600Z,12.60
2018-09-06T10:31:42.064Z,13.17
2018-09-06T10:34:10.647Z,12.77
2018-09-06T10:36:39.085Z,12.70
2018-09-06T10:39:09.023Z,13.40
2018-09-06T10:41:37.725Z,13.03
2018-09-06T10:44:06.243Z,12.93
2018-09-06T10:46:34.799Z,14.03
2018-09-06T10:49:03.275Z,14.00
2018-09-06T10:51:31.777Z,12.90
2018-09-06T10:54:00.203Z,12.03
2018-09-06T10:56:29.626Z,12.50
2018-09-06T10:58:58.403Z,12.80
2018-09-06T11:01:26.845Z,12.90
2018-09-06T11:03:56.616Z,13.60
2018-09-06T11:06:25.338Z,12.80
2018-09-06T11:08:53.854Z,11.87
2018-09-06T11:11:22.303Z,12.67
2018-09-06T11:13:50.741Z,12.33
2018-09-06T11:16:19.586Z,12.07
2018-09-06T11:18:48.126Z,12.17
2018-09-06T11:21:16.666Z,13.73
2018-09-06T11:23:45.190Z,12.83
2018-09-06T11:26:14.075Z,12.40
2018-09-06T11:28:42.547Z,11.80
2018-09-06T11:31:10.983Z,11.53
2018-09-06T11:33:39.613Z,12.20
2018-09-06T11:36:08.063Z,11.10
2018-09-06T11:38:36.718Z,12.03
2018-09-06T11:41:05.260Z,11.50
2018-09-06T11:43:33.734Z,11.53
2018-09-06T11:46:02.220Z,10.97
2018-09-06T11:48:30.826Z,10.83
2018-09-06T11:50:59.288Z,10.63
2018-09-06T11:53:27.712Z,11.00
2018-09-06T11:55:56.233Z,11.40
2018-09-06T11:58:24.671Z,12.30
2018-09-06T12:00:53.171Z,10.97
2018-09-06T12:03:21.716Z,13.30
2018-09-06T12:05:50.157Z,11.63
2018-09-06T12:08:18.575Z,11.73
2018-09-06T12:10:47.086Z,10.30
2018-09-06T12:13:15.581Z,11.50
2018-09-06T12:15:44.172Z,10.17
2018-09-06T12:18:12.842Z,10.77
2018-09-06T12:20:41.345Z,10.17
2018-09-06T12:23:10.306Z,10.95
2018-09-06T12:25:38.807Z,10.40
2018-09-06T12:28:07.373Z,10.73
2018-09-06T12:30:35.843Z,10.77
2018-09-06T12:33:04.887Z,12.07
2018-09-06T12:35:33.916Z,9.95
2018-09-06T12:38:02.559Z,9.83
2018-09-06T12:40:31.573Z,9.60
2018-09-06T12:43:00.599Z,10.08
2018-09-06T12:45:29.593Z,9.20
2018-09-06T12:47:58.597Z,8.65
2018-09-06T12:50:27.566Z,11.83
2018-09-06T12:52:56.599Z,11.00
2018-09-06T12:55:25.579Z,9.53
2018-09-06T12:57:54.557Z,9.60
2018-09-06T13:00:23.695Z,8.95
2018-09-06T13:02:52.925Z,9.80
2018-09-06T13:05:22.047Z,9.98
2018-09-06T13:07:51.038Z,9.45
2018-09-06T13:10:20.090Z,9.30
2018-09-06T13:12:49.033Z,9.00
2018-09-06T13:15:18.301Z,9.63
2018-09-06T13:17:47.280Z,9.35
2018-09-06T13:20:16.430Z,9.18
2018-09-06T13:22:45.420Z,8.93
2018-09-06T13:25:14.836Z,9.15
2018-09-06T13:27:43.793Z,8.73
2018-09-06T13:30:12.908Z,9.55
2018-09-06T13:32:41.903Z,9.40
2018-09-06T13:35:10.985Z,10.10
2018-09-06T13:37:40.007Z,9.68
2018-09-06T13:40:09.075Z,8.90
2018-09-06T13:42:38.025Z,9.65
2018-09-06T13:45:07.171Z,9.90
2018-09-06T13:47:36.161Z,10.15
2018-09-06T13:50:05.180Z,9.93
2018-09-06T13:52:34.170Z,11.55
2018-09-06T13:55:03.179Z,9.33
2018-09-06T13:57:32.133Z,9.70
2018-09-06T14:00:01.325Z,10.85
2018-09-06T14:02:30.437Z,10.90
2018-09-06T14:04:59.489Z,11.55
2018-09-06T14:07:28.710Z,15.83
2018-09-06T14:09:57.856Z,14.83
2018-09-06T14:12:26.852Z,11.25
2018-09-06T14:14:55.942Z,11.15
2018-09-06T14:17:24.944Z,13.65
2018-09-06T14:19:53.992Z,12.65
2018-09-06T14:22:22.982Z,14.03
2018-09-06T14:24:52.044Z,12.47
2018-09-06T14:27:21.061Z,16.42
2018-09-06T14:29:50.071Z,12.60
2018-09-06T14:32:19.071Z,14.78
2018-09-06T14:34:48.094Z,13.83
2018-09-06T14:37:17.119Z,10.78
2018-09-06T14:39:46.103Z,10.05
2018-09-06T14:42:15.106Z,10.68
2018-09-06T14:44:44.108Z,9.50
2018-09-06T14:47:13.125Z,11.88
2018-09-06T14:49:42.159Z,10.18
2018-09-06T14:52:11.243Z,9.68
2018-09-06T14:54:42.219Z,9.40
2018-09-06T14:57:11.745Z,9.68
2018-09-06T14:59:40.712Z,11.40
2018-09-06T15:02:09.749Z,10.85
2018-09-06T15:04:39.517Z,10.08
2018-09-06T15:07:08.586Z,9.48
2018-09-06T15:09:37.625Z,9.50
2018-09-06T15:12:06.608Z,9.90
2018-09-06T15:14:35.974Z,72.50
2018-09-06T15:17:05.066Z,16.05
2018-09-06T15:19:34.104Z,12.47
2018-09-06T15:22:03.097Z,10.80
2018-09-06T15:24:32.145Z,10.18
2018-09-06T15:27:01.146Z,10.18
2018-09-06T15:29:30.181Z,10.28
2018-09-06T15:31:59.216Z,10.10
2018-09-06T15:34:28.366Z,9.65
2018-09-06T15:36:57.632Z,16.17
2018-09-06T15:39:26.703Z,10.88
2018-09-06T15:41:56.513Z,12.15
2018-09-06T15:44:25.528Z,10.05
2018-09-06T15:46:54.547Z,10.10
2018-09-06T15:49:23.615Z,9.45
2018-09-06T15:51:52.980Z,9.48
2018-09-06T15:54:21.999Z,9.88
2018-09-06T15:56:51.012Z,10.28
2018-09-06T15:59:19.991Z,9.73
2018-09-06T16:01:49.037Z,9.78
2018-09-06T16:04:18.240Z,9.83
2018-09-06T16:06:47.261Z,9.28
2018-09-06T16:09:16.743Z,9.50
2018-09-06T16:11:45.819Z,16.07
2018-09-06T16:14:14.807Z,14.28
2018-09-06T16:16:43.803Z,23.32
2018-09-06T16:19:12.859Z,11.10
2018-09-06T16:21:41.912Z,9.45
2018-09-06T16:24:10.926Z,10.18
2018-09-06T16:26:40.086Z,9.20
2018-09-06T16:29:09.100Z,9.25
2018-09-06T16:31:38.132Z,9.93
2018-09-06T16:34:07.309Z,8.78
2018-09-06T16:36:36.347Z,9.08
2018-09-06T16:39:07.274Z,8.85
2018-09-06T16:41:36.328Z,9.68
2018-09-06T16:44:04.815Z,10.43
2018-09-06T16:46:33.442Z,10.13
2018-09-06T16:49:02.590Z,10.35
2018-09-06T16:51:31.718Z,13.50
2018-09-06T16:54:00.162Z,24.30
2018-09-06T16:56:29.266Z,13.58
2018-09-06T16:58:58.358Z,9.88
2018-09-06T17:01:26.822Z,11.93
2018-09-06T17:03:55.317Z,11.00
2018-09-06T17:06:23.791Z,9.63
2018-09-06T17:08:52.815Z,9.85
2018-09-06T17:11:21.867Z,9.78
2018-09-06T17:13:50.336Z,14.07
2018-09-06T17:16:18.739Z,22.60
2018-09-06T17:18:47.340Z,13.73
2018-09-06T17:21:15.783Z,12.33
2018-09-06T17:23:44.250Z,10.67
2018-09-06T17:26:13.434Z,10.10
2018-09-06T17:28:42.072Z,10.23
2018-09-06T17:31:10.488Z,10.77
2018-09-06T17:33:38.967Z,9.50
2018-09-06T17:36:07.401Z,9.37
2018-09-06T17:38:36.150Z,9.80
2018-09-06T17:41:05.031Z,10.27
2018-09-06T17:43:33.459Z,9.90
2018-09-06T17:46:01.899Z,21.50
2018-09-06T17:48:30.360Z,33.57
2018-09-06T17:50:58.774Z,13.60
2018-09-06T17:53:27.264Z,11.40
2018-09-06T17:55:55.690Z,10.57
2018-09-06T17:58:24.168Z,9.27
2018-09-06T18:01:26.184Z,10.07
2018-09-06T18:03:54.876Z,9.73
2018-09-06T18:06:23.318Z,9.67
2018-09-06T18:08:51.834Z,10.03
2018-09-06T18:11:20.233Z,9.37
2018-09-06T18:13:48.689Z,10.43
2018-09-06T18:16:17.316Z,8.83
2018-09-06T18:18:45.765Z,10.00
2018-09-06T18:21:14.231Z,9.57
2018-09-06T18:23:42.731Z,8.93
2018-09-06T18:26:11.425Z,9.57
2018-09-06T18:28:39.888Z,9.90
2018-09-06T18:31:08.328Z,14.27
2018-09-06T18:33:36.977Z,13.27
2018-09-06T18:36:05.682Z,10.97
2018-09-06T18:38:34.282Z,9.97
2018-09-06T18:41:02.794Z,10.20
2018-09-06T18:43:31.789Z,10.93
2018-09-06T18:46:00.422Z,10.00
2018-09-06T18:48:29.006Z,20.43
2018-09-06T18:50:57.565Z,20.13
2018-09-06T18:53:26.093Z,11.57
2018-09-06T18:55:54.701Z,12.43
2018-09-06T18:58:23.337Z,12.40
2018-09-06T19:00:51.847Z,11.87
2018-09-06T19:03:20.386Z,12.60
2018-09-06T19:05:48.959Z,13.30
2018-09-06T19:08:17.542Z,11.07
2018-09-06T19:10:46.124Z,9.37
2018-09-06T19:13:14.720Z,9.40
2018-09-06T19:15:43.260Z,9.50
2018-09-06T19:18:11.876Z,9.80
2018-09-06T19:20:40.495Z,9.90
2018-09-06T19:23:08.994Z,9.20
2018-09-06T19:25:37.524Z,9.70
2018-09-06T19:28:06.129Z,9.83
2018-09-06T19:30:34.625Z,10.13
2018-09-06T19:33:03.145Z,10.80
2018-09-06T19:35:31.652Z,9.47
2018-09-06T19:38:00.147Z,9.77
2018-09-06T19:40:28.854Z,9.20
2018-09-06T19:42:57.411Z,9.70
2018-09-06T19:45:25.942Z,9.40
2018-09-06T19:47:54.794Z,9.47
2018-09-06T19:50:30.102Z,10.27
2018-09-06T19:52:59.567Z,9.30
2018-09-06T19:55:28.216Z,9.57
2018-09-06T19:57:56.870Z,9.67
2018-09-06T20:00:25.373Z,9.23
2018-09-06T20:02:53.851Z,9.47
2018-09-06T20:05:22.463Z,9.50
2018-09-06T20:07:51.200Z,10.47
2018-09-06T20:10:19.772Z,9.83
2018-09-06T20:12:48.842Z,8.70
2018-09-06T20:15:17.586Z,9.00
2018-09-06T20:17:46.214Z,8.63
2018-09-06T20:20:14.909Z,7.37
2018-09-06T20:22:43.433Z,7.60
2018-09-06T20:25:12.043Z,7.83
2018-09-06T20:27:40.609Z,6.87
2018-09-06T20:30:09.111Z,8.00
2018-09-06T20:32:37.719Z,8.47
2018-09-06T20:35:06.490Z,7.83
2018-09-06T20:37:35.182Z,8.57
2018-09-06T20:40:03.878Z,8.80
2018-09-06T20:42:32.559Z,8.43
2018-09-06T20:45:00.974Z,7.87
2018-09-06T20:47:29.445Z,7.80
2018-09-06T20:49:57.868Z,7.33
2018-09-06T20:52:26.366Z,6.40
2018-09-06T20:54:54.838Z,6.40
2018-09-06T20:57:23.367Z,7.03
2018-09-06T20:59:51.773Z,6.97
2018-09-06T21:02:24.088Z,6.83
2018-09-06T21:04:53.431Z,6.03
2018-09-06T21:07:22.548Z,5.27
2018-09-06T21:09:51.711Z,5.83
2018-09-06T21:12:20.230Z,5.60
2018-09-06T21:14:48.657Z,5.47
2018-09-06T21:17:17.200Z,4.77
2018-09-06T21:19:45.603Z,4.50
2018-09-06T21:22:14.203Z,4.23
2018-09-06T21:24:42.914Z,5.57
2018-09-06T21:27:11.457Z,5.40
2018-09-06T21:29:39.991Z,4.50
2018-09-06T21:32:08.506Z,4.03
2018-09-06T21:34:37.551Z,4.63
2018-09-06T21:37:06.410Z,4.07
2018-09-06T21:39:34.842Z,4.20
2018-09-06T21:42:03.426Z,4.37
2018-09-06T21:44:31.949Z,3.97
2018-09-06T21:47:00.542Z,3.50
2018-09-06T21:49:29.514Z,3.17
2018-09-06T21:51:58.352Z,3.93
2018-09-06T21:54:26.885Z,3.93
2018-09-06T21:56:55.379Z,3.57
2018-09-06T21:59:23.873Z,3.77
2018-09-06T22:01:52.363Z,4.00
2018-09-06T22:04:20.868Z,3.77
2018-09-06T22:06:49.552Z,3.93
2018-09-06T22:09:18.289Z,3.83
2018-09-06T22:11:47.006Z,4.20
2018-09-06T22:14:16.360Z,4.10
2018-09-06T22:16:45.140Z,4.37
2018-09-06T22:19:15.785Z,4.37
2018-09-06T22:21:44.379Z,4.70
2018-09-06T22:24:12.993Z,4.87
2018-09-06T22:26:41.735Z,5.60
2018-09-06T22:29:10.806Z,5.53
2018-09-06T22:31:39.663Z,5.73
2018-09-06T22:34:08.751Z,6.00
2018-09-06T22:36:37.768Z,5.80
2018-09-06T22:39:08.563Z,6.67
2018-09-06T22:41:37.421Z,6.30
2018-09-06T22:44:07.259Z,5.63
2018-09-06T22:46:35.702Z,6.10
2018-09-06T22:49:04.203Z,6.67
2018-09-06T22:51:32.886Z,7.10
2018-09-06T22:54:01.303Z,6.50
2018-09-06T22:56:29.779Z,6.20
2018-09-06T22:58:58.226Z,6.17
2018-09-06T23:01:26.666Z,6.27
2018-09-06T23:03:55.150Z,6.80
2018-09-06T23:06:23.680Z,6.90
2018-09-06T23:08:52.152Z,7.13
2018-09-06T23:11:20.636Z,6.83
2018-09-06T23:13:49.359Z,6.87
2018-09-06T23:16:18.111Z,6.07
2018-09-06T23:18:46.603Z,5.50
2018-09-06T23:21:15.376Z,5.00
2018-09-06T23:23:43.847Z,4.33
2018-09-06T23:26:12.301Z,4.20
2018-09-06T23:28:40.740Z,3.97
2018-09-06T23:31:09.281Z,5.20
2018-09-06T23:33:37.783Z,4.77
2018-09-06T23:36:06.326Z,4.10
2018-09-06T23:38:34.826Z,4.20
2018-09-06T23:41:03.270Z,4.27
2018-09-06T23:43:31.721Z,3.90
2018-09-06T23:46:00.172Z,4.00
2018-09-06T23:48:29.942Z,4.03
2018-09-06T23:50:58.790Z,3.23
2018-09-06T23:53:28.048Z,2.83
2018-09-06T23:55:56.445Z,3.03
2018-09-06T23:58:25.123Z,2.90
